Time;durP1;ratioP1;P1;durP2;ratioP2;P2;SDS_P1;SDS_P2;PMS_P1;PMS_P2;Temp;Humidity;BMP_temperature;BMP_pressure;BME280_temperature;BME280_humidity;BME280_pressure;Samples;Min_cycle;Max_cycle;Signal;HPM_P1;HPM_P2
2021/09/09 00:00:29;;;;;;;3.75;3.20;;;23.50;50.70;;;27.80;33.16;101255.25;5076031;28;20131;-11
2021/09/09 00:02:55;;;;;;;2.80;2.60;;;23.50;50.70;;;27.79;33.13;101250.88;5095899;28;20513;-11
2021/09/09 00:05:21;;;;;;;2.92;2.63;;;23.50;50.80;;;27.76;33.29;101249.31;5095716;28;20490;-10
2021/09/09 00:07:49;;;;;;;4.15;2.58;;;23.50;50.70;;;27.76;33.41;101245.78;5094157;28;20044;-10
2021/09/09 00:10:16;;;;;;;2.83;2.55;;;23.50;50.80;;;27.77;33.34;101245.66;5095836;28;20040;-11
2021/09/09 00:12:43;;;;;;;3.55;2.78;;;23.50;50.80;;;27.76;33.41;101238.56;5095907;28;20066;-10
2021/09/09 00:15:10;;;;;;;3.60;3.25;;;23.50;50.80;;;27.77;33.26;101250.19;5095871;28;20052;-11
2021/09/09 00:17:36;;;;;;;3.00;2.58;;;23.50;50.80;;;27.75;33.31;101242.25;5092964;28;20048;-11
2021/09/09 00:20:09;;;;;;;2.80;2.60;;;23.50;50.80;;;27.76;33.27;101237.72;5095749;28;20405;-11
2021/09/09 00:22:35;;;;;;;4.28;2.80;;;23.40;50.70;;;27.77;33.36;101242.13;5095801;28;20044;-11
2021/09/09 00:25:01;;;;;;;2.58;2.22;;;23.50;50.80;;;27.75;33.41;101244.94;5095653;28;20481;-11
2021/09/09 00:27:27;;;;;;;2.90;2.50;;;23.40;51.30;;;27.77;33.16;101244.81;5095693;28;20426;-11
2021/09/09 00:29:52;;;;;;;2.78;2.58;;;23.40;50.70;;;27.77;33.51;101239.44;5095469;28;20109;-10
2021/09/09 00:32:18;;;;;;;3.00;2.70;;;23.40;50.70;;;27.76;33.24;101229.66;5095944;28;20490;-11
2021/09/09 00:34:44;;;;;;;3.15;2.85;;;23.50;50.80;;;27.75;33.31;101222.56;5095574;28;20519;-11
2021/09/09 00:37:10;;;;;;;3.33;3.03;;;23.40;50.80;;;27.75;33.41;101230.63;5095609;28;20047;-11
2021/09/09 00:39:36;;;;;;;3.10;2.75;;;23.40;50.80;;;27.72;33.20;101223.69;5095916;28;20044;-11
2021/09/09 00:42:02;;;;;;;3.28;2.72;;;23.40;50.80;;;27.72;33.32;101221.00;5095757;28;20052;-11
2021/09/09 00:44:29;;;;;;;2.80;2.60;;;23.40;50.70;;;27.74;33.25;101224.41;5095703;28;20474;-10
2021/09/09 00:47:00;;;;;;;2.83;2.53;;;23.40;50.80;;;27.72;33.37;101223.69;5095275;28;20048;-10
2021/09/09 00:49:26;;;;;;;2.55;2.35;;;23.40;50.80;;;27.73;33.30;101220.88;5095210;28;20094;-11
2021/09/09 00:51:52;;;;;;;3.60;3.10;;;23.40;51.30;;;27.70;33.54;101221.13;5095387;28;20044;-10
2021/09/09 00:54:18;;;;;;;3.22;2.72;;;23.40;50.70;;;27.73;33.31;101223.56;5095508;28;20060;-11
2021/09/09 00:56:44;;;;;;;3.17;2.88;;;23.40;50.80;;;27.72;33.10;101215.63;5095218;28;20050;-11
2021/09/09 00:59:10;;;;;;;2.78;2.53;;;23.40;50.80;;;27.71;33.30;101214.75;5095472;28;20048;-11
2021/09/09 01:01:35;;;;;;;2.97;2.67;;;23.40;50.80;;;27.73;33.22;101220.00;5095389;28;20515;-10
2021/09/09 01:04:01;;;;;;;3.75;2.67;;;23.40;50.80;;;27.71;33.46;101213.91;5094075;28;20515;-11
2021/09/09 01:06:27;;;;;;;5.50;3.00;;;23.40;50.80;;;27.71;33.18;101216.59;5095188;28;20504;-11
2021/09/09 01:08:53;;;;;;;2.53;2.33;;;23.40;50.80;;;27.71;33.44;101206.69;5095130;28;20044;-11
2021/09/09 01:11:19;;;;;;;3.63;2.75;;;23.40;50.80;;;27.71;33.47;101209.38;5095445;28;20543;-10
2021/09/09 01:13:51;;;;;;;3.28;2.75;;;23.40;50.80;;;27.68;33.55;101211.50;5095454;28;20051;-10
2021/09/09 01:16:18;;;;;;;3.80;2.72;;;23.40;50.80;;;27.71;33.37;101197.81;5095565;28;20137;-10
2021/09/09 01:18:44;;;;;;;2.92;2.63;;;23.40;50.80;;;27.70;33.21;101212.25;5094734;28;20047;-10
2021/09/09 01:21:10;;;;;;;3.00;2.70;;;23.40;50.80;;;27.70;33.15;101209.53;5093078;28;20097;-10
2021/09/09 01:23:36;;;;;;;3.05;2.75;;;23.40;50.90;;;27.69;33.29;101214.03;5094820;28;20052;-10
2021/09/09 01:26:03;;;;;;;4.30;3.20;;;23.40;50.90;;;27.69;33.79;101206.00;5094991;28;20505;-11
2021/09/09 01:28:30;;;;;;;2.90;2.58;;;23.40;50.80;;;27.68;33.41;101204.31;5094444;28;20052;-10
2021/09/09 01:30:55;;;;;;;3.10;2.58;;;23.40;51.40;;;27.70;33.34;101205.00;5094942;28;20048;-11
2021/09/09 01:33:21;;;;;;;3.38;2.80;;;23.40;50.80;;;27.68;33.29;101207.00;5095214;28;20084;-11
2021/09/09 01:35:47;;;;;;;2.95;2.63;;;23.40;50.90;;;27.69;33.11;101211.38;5094689;28;20093;-11
2021/09/09 01:38:23;;;;;;;3.58;2.80;;;23.40;50.90;;;27.66;33.32;101208.94;5094601;28;20169;-11
2021/09/09 01:40:50;;;;;;;3.03;2.70;;;23.40;50.90;;;27.67;33.35;101205.28;5094561;28;20176;-11
2021/09/09 01:43:17;;;;;;;3.30;2.50;;;23.40;50.90;;;27.67;33.46;101202.59;5094463;28;20052;-11
2021/09/09 01:45:44;;;;;;;3.70;2.85;;;23.40;50.80;;;27.65;33.36;101201.00;5094967;28;20040;-11
2021/09/09 01:48:10;;;;;;;3.03;2.65;;;23.40;51.40;;;27.68;33.52;101203.44;5094137;28;20044;-11
2021/09/09 01:50:36;;;;;;;3.10;2.80;;;23.40;50.90;;;27.66;33.22;101197.34;5094390;28;20136;-11
2021/09/09 01:53:02;;;;;;;3.08;2.78;;;23.40;50.90;;;27.68;33.43;101195.38;5094371;28;20486;-10
2021/09/09 01:55:27;;;;;;;3.25;2.75;;;23.40;51.40;;;27.68;33.16;101192.69;5093963;28;20052;-10
2021/09/09 01:57:53;;;;;;;3.28;2.72;;;23.40;50.80;;;27.66;33.45;101195.50;5093884;28;20048;-11
2021/09/09 02:00:19;;;;;;;3.47;2.80;;;23.40;50.90;;;27.67;33.44;101199.06;5094158;28;20040;-11
2021/09/09 02:02:45;;;;;;;3.83;2.80;;;23.40;50.90;;;27.66;33.44;101197.34;5094140;28;20044;-10
2021/09/09 02:05:13;;;;;;;4.50;2.95;;;23.40;50.80;;;27.68;33.47;101195.38;5093873;28;20054;-10
2021/09/09 02:07:39;;;;;;;3.08;2.78;;;23.40;50.90;;;27.66;33.57;101189.28;5093783;28;20052;-11
2021/09/09 02:10:07;;;;;;;3.78;2.40;;;23.40;50.80;;;27.64;33.44;101189.41;5094417;28;20056;-11
2021/09/09 02:12:33;;;;;;;2.72;2.47;;;23.40;50.80;;;27.66;33.37;101191.97;5094079;28;20482;-10
2021/09/09 02:14:58;;;;;;;3.25;2.95;;;23.40;50.80;;;27.66;33.66;101189.28;5093738;28;20055;-10
2021/09/09 02:17:24;;;;;;;3.13;2.83;;;23.40;50.80;;;27.65;33.33;101185.75;5094020;28;20538;-11
2021/09/09 02:19:50;;;;;;;3.53;3.00;;;23.40;50.90;;;27.65;33.39;101191.13;5093764;28;20093;-10
2021/09/09 02:22:16;;;;;;;3.05;2.75;;;23.40;50.90;;;27.64;33.37;101178.66;5093857;28;20044;-11
2021/09/09 02:24:45;;;;;;;3.03;2.78;;;23.40;50.80;;;27.65;33.22;101185.75;5093898;28;20055;-11
2021/09/09 02:27:15;;;;;;;3.58;2.95;;;23.40;50.90;;;27.63;33.49;101181.47;5093952;28;20101;-10
2021/09/09 02:29:43;;;;;;;3.53;2.70;;;23.40;50.90;;;27.64;33.45;101177.81;5093863;28;20091;-11
2021/09/09 02:32:09;;;;;;;2.97;2.75;;;23.40;50.90;;;27.66;33.57;101171.31;5093752;28;20050;-10
2021/09/09 02:34:36;;;;;;;2.50;2.30;;;23.40;50.80;;;27.65;33.24;101166.94;5093699;28;20044;-11
2021/09/09 02:37:02;;;;;;;2.97;2.67;;;23.40;50.80;;;27.60;33.50;101155.75;5093620;28;20052;-11
2021/09/09 02:39:28;;;;;;;3.30;3.00;;;23.40;50.80;;;27.63;33.29;101160.88;5093649;28;20144;-10
2021/09/09 02:41:54;;;;;;;2.58;2.25;;;23.40;50.90;;;27.64;33.44;101161.72;5075867;28;20044;-10
2021/09/09 02:44:20;;;;;;;2.63;2.42;;;23.40;50.80;;;27.65;33.58;101168.75;5093566;28;20059;-11
2021/09/09 02:46:45;;;;;;;2.38;2.17;;;23.40;50.80;;;27.63;33.42;101160.88;5094137;28;20044;-11
2021/09/09 02:49:11;;;;;;;3.00;2.40;;;23.40;50.80;;;27.61;33.47;101151.22;5075064;28;20409;-11
2021/09/09 02:51:37;;;;;;;3.28;2.70;;;23.40;50.80;;;27.63;33.46;101151.94;5075679;28;20401;-11
2021/09/09 02:54:03;;;;;;;2.53;2.33;;;23.40;50.80;;;27.61;33.32;101152.06;5093382;28;20436;-10
2021/09/09 02:56:28;;;;;;;2.78;2.55;;;23.40;50.80;;;27.60;33.52;101144.13;5093659;28;20489;-11
2021/09/09 02:58:57;;;;;;;3.08;2.63;;;23.40;50.80;;;27.63;33.50;101152.81;5093127;28;20920;-11
2021/09/09 03:01:23;;;;;;;3.33;3.00;;;23.40;50.80;;;27.60;33.42;101141.44;5093848;28;20424;-11
2021/09/09 03:03:49;;;;;;;2.97;2.67;;;23.40;50.80;;;27.61;33.51;101133.25;5093586;28;20077;-11
2021/09/09 03:06:14;;;;;;;2.85;2.65;;;23.40;50.90;;;27.63;33.42;101138.50;5089787;28;20044;-10
2021/09/09 03:08:40;;;;;;;2.83;2.53;;;23.40;50.80;;;27.61;33.58;101137.78;5092983;28;20044;-11
2021/09/09 03:11:06;;;;;;;3.33;2.80;;;23.40;50.80;;;27.59;33.26;101129.88;5093131;28;20044;-11
2021/09/09 03:13:32;;;;;;;3.15;2.55;;;23.40;50.80;;;27.60;33.60;101130.72;5093215;28;20455;-10
2021/09/09 03:15:57;;;;;;;3.15;2.67;;;23.40;50.80;;;27.61;33.47;101135.09;5092940;28;20439;-11
2021/09/09 03:18:23;;;;;;;2.88;2.60;;;23.40;50.80;;;27.59;33.28;101131.72;5092839;28;20044;-11
2021/09/09 03:20:52;;;;;;;3.35;2.83;;;23.30;50.80;;;27.59;33.43;101127.19;5093041;28;20048;-11
2021/09/09 03:23:19;;;;;;;2.90;2.60;;;23.40;50.90;;;27.59;33.43;101124.50;5092947;28;20048;-11
2021/09/09 03:25:46;;;;;;;3.33;3.03;;;23.30;50.80;;;27.59;33.57;101124.50;5092925;28;20048;-10
2021/09/09 03:28:13;;;;;;;2.78;2.50;;;23.30;50.80;;;27.59;33.49;101124.50;5091994;28;20044;-10
2021/09/09 03:30:39;;;;;;;2.97;2.53;;;23.30;50.80;;;27.59;33.50;101110.22;5093148;28;20050;-10
2021/09/09 03:33:04;;;;;;;2.92;2.45;;;23.40;50.80;;;27.58;33.18;101103.97;5092621;28;20052;-10
2021/09/09 03:35:30;;;;;;;2.90;2.60;;;23.30;50.70;;;27.61;33.51;101116.31;5092668;28;20052;-11
2021/09/09 03:37:56;;;;;;;2.97;2.67;;;23.40;50.80;;;27.59;33.50;101111.06;5092514;28;20413;-11
2021/09/09 03:40:22;;;;;;;2.92;2.63;;;23.40;50.80;;;27.58;33.37;101105.81;5092873;28;20406;-11
2021/09/09 03:42:48;;;;;;;2.88;2.58;;;23.40;50.80;;;27.58;33.56;101103.97;5092867;28;20130;-10
2021/09/09 03:45:13;;;;;;;2.92;2.63;;;23.30;50.70;;;27.59;33.63;101108.38;5092384;28;20109;-11
2021/09/09 03:47:39;;;;;;;3.15;2.85;;;23.30;50.70;;;27.59;33.33;101105.69;5092498;28;20490;-11
2021/09/09 03:50:06;;;;;;;3.15;2.65;;;23.40;50.80;;;27.56;33.60;101097.06;5092544;28;20489;-11
2021/09/09 03:52:31;;;;;;;2.97;2.67;;;23.30;50.80;;;27.58;33.24;101097.75;5092858;28;20044;-11
2021/09/09 03:54:57;;;;;;;3.15;2.85;;;23.30;51.30;;;27.58;33.21;101100.44;5093035;28;20048;-11
2021/09/09 03:57:24;;;;;;;3.10;2.65;;;23.30;50.70;;;27.58;33.66;101089.69;5092513;28;20052;-11
2021/09/09 03:59:50;;;;;;;2.97;2.70;;;23.30;50.80;;;27.57;33.40;101091.56;5091156;28;20063;-11
2021/09/09 04:02:16;;;;;;;3.50;3.20;;;23.30;50.80;;;27.57;33.58;101082.66;5074347;28;20056;-10
2021/09/09 04:04:43;;;;;;;2.95;2.65;;;23.30;50.80;;;27.54;33.48;101081.91;5092333;28;20455;-10
2021/09/09 04:07:09;;;;;;;3.70;3.20;;;23.30;50.80;;;27.57;33.29;101082.66;5092436;28;20113;-11
2021/09/09 04:09:36;;;;;;;2.90;2.58;;;23.30;50.80;;;27.58;33.38;101087.03;5092592;28;20052;-11
2021/09/09 04:12:04;;;;;;;2.88;2.60;;;23.30;50.80;;;27.56;33.38;101083.63;5092950;28;20048;-10
2021/09/09 04:14:31;;;;;;;3.35;2.90;;;23.30;50.80;;;27.54;33.45;101081.91;5092540;28;20048;-11
2021/09/09 04:16:56;;;;;;;3.50;2.88;;;23.30;50.80;;;27.58;33.67;101084.34;5092294;28;20080;-10
2021/09/09 04:19:26;;;;;;;3.17;2.85;;;23.30;50.80;;;27.58;33.70;101085.19;5092169;28;20415;-10
2021/09/09 04:21:52;;;;;;;3.35;2.50;;;23.30;50.80;;;27.56;33.51;101080.94;5092151;28;20048;-10
2021/09/09 04:24:20;;;;;;;2.97;2.67;;;23.30;50.80;;;27.54;33.60;101075.69;5092240;28;20059;-10
2021/09/09 04:26:47;;;;;;;3.65;2.78;;;23.30;50.80;;;27.55;33.41;101077.41;5092188;28;20079;-11
2021/09/09 04:29:12;;;;;;;3.25;2.95;;;23.30;50.90;;;27.55;33.35;101074.72;5091985;28;20085;-11
2021/09/09 04:31:39;;;;;;;3.78;2.90;;;23.30;50.80;;;27.55;33.43;101080.09;5092068;28;20048;-11
2021/09/09 04:34:05;;;;;;;2.72;2.53;;;23.30;50.80;;;27.56;33.50;101079.09;5092125;28;20051;-11
2021/09/09 04:36:30;;;;;;;3.40;2.72;;;23.30;50.80;;;27.55;33.60;101074.72;5092607;28;20074;-10
2021/09/09 04:38:57;;;;;;;3.08;2.78;;;23.30;50.80;;;27.53;33.42;101068.59;5093830;28;20060;-11
2021/09/09 04:41:22;;;;;;;2.95;2.63;;;23.30;50.80;;;27.53;33.50;101066.78;5095714;28;20084;-10
2021/09/09 04:43:48;;;;;;;3.47;2.95;;;23.30;50.80;;;27.54;33.61;101071.16;5095788;28;20044;-11
2021/09/09 04:46:14;;;;;;;3.47;2.78;;;23.30;50.80;;;27.55;33.28;101074.72;5095389;28;20086;-10
2021/09/09 04:48:40;;;;;;;2.55;2.30;;;23.30;50.80;;;27.56;33.35;101070.19;5095427;28;20056;-10
2021/09/09 04:51:05;;;;;;;3.22;2.75;;;23.30;50.80;;;27.57;33.48;101066.53;5095796;28;20044;-11
2021/09/09 04:53:31;;;;;;;3.13;2.83;;;23.30;50.80;;;27.54;33.43;101063.09;5095304;28;20105;-11
2021/09/09 04:55:57;;;;;;;2.60;2.33;;;23.30;50.80;;;27.56;33.52;101062.13;5095249;28;20047;-11
2021/09/09 04:58:23;;;;;;;3.92;2.97;;;23.30;50.80;;;27.57;33.63;101061.16;5095558;28;20485;-10
2021/09/09 05:00:50;;;;;;;2.72;2.53;;;23.30;50.80;;;27.54;33.33;101059.56;5095168;28;20056;-10
2021/09/09 05:03:17;;;;;;;3.45;3.15;;;23.30;50.80;;;27.56;33.60;101056.75;5095143;28;20051;-11
2021/09/09 05:05:44;;;;;;;3.10;2.80;;;23.40;50.80;;;27.59;33.65;101061.88;5095315;28;20044;-10
2021/09/09 05:08:10;;;;;;;2.80;2.60;;;23.40;50.70;;;27.59;33.48;101054.66;5094898;28;20044;-11
2021/09/09 05:10:35;;;;;;;3.17;2.88;;;23.40;50.60;;;27.60;33.33;101050.13;5095391;28;20135;-11
2021/09/09 05:13:01;;;;;;;3.20;2.97;;;23.40;50.60;;;27.62;33.42;101054.38;5094744;28;20075;-11
2021/09/09 05:15:27;;;;;;;3.50;3.08;;;23.50;50.50;;;27.66;33.41;101060.34;5095401;28;20367;-11
2021/09/09 05:17:54;;;;;;;2.88;2.65;;;23.50;50.40;;;27.68;33.52;101056.56;5094496;28;20051;-10
2021/09/09 05:20:20;;;;;;;3.15;2.85;;;23.50;50.40;;;27.70;33.25;101053.72;5094461;28;20056;-10
2021/09/09 05:22:47;;;;;;;3.10;2.65;;;23.60;50.40;;;27.72;33.23;101049.91;5094690;28;20059;-11
2021/09/09 05:25:13;;;;;;;2.83;2.58;;;23.60;50.30;;;27.74;33.21;101041.72;5094627;28;20117;-10
2021/09/09 05:27:40;;;;;;;3.97;3.13;;;23.70;50.20;;;27.80;33.18;101043.88;5095017;28;20051;-11
2021/09/09 05:30:06;;;;;;;3.30;3.00;;;23.70;50.10;;;27.84;33.05;101039.06;5094139;28;20136;-11
2021/09/09 05:32:33;;;;;;;3.45;2.97;;;23.70;50.00;;;27.85;33.12;101036.25;5095154;28;20076;-10
2021/09/09 05:35:00;;;;;;;3.50;2.90;;;23.80;49.90;;;27.93;32.95;101043.63;5094886;28;20048;-10
2021/09/09 05:37:26;;;;;;;3.22;2.63;;;23.90;49.80;;;27.95;33.06;101033.63;5094606;28;20048;-11
2021/09/09 05:39:52;;;;;;;3.00;2.70;;;23.90;49.60;;;27.99;33.17;101040.41;5094809;28;20573;-10
2021/09/09 05:42:18;;;;;;;2.85;2.60;;;24.00;49.50;;;28.04;33.19;101037.31;5094511;28;20131;-10
2021/09/09 05:44:44;;;;;;;3.28;2.78;;;24.10;49.40;;;28.07;33.02;101029.00;5094695;28;20406;-10
2021/09/09 05:47:10;;;;;;;2.83;2.55;;;24.10;49.20;;;28.16;32.75;101024.63;5094717;28;20043;-10
2021/09/09 05:49:36;;;;;;;3.55;3.10;;;24.20;49.10;;;28.17;32.82;101019.09;5075475;28;20471;-11
2021/09/09 05:52:04;;;;;;;3.83;3.17;;;24.30;49.00;;;28.22;32.73;101016.00;5093902;28;20060;-10
2021/09/09 05:54:33;;;;;;;3.35;3.05;;;24.30;48.80;;;28.28;32.86;101026.19;5093660;28;20049;-10
2021/09/09 05:56:59;;;;;;;2.95;2.63;;;24.40;48.80;;;28.30;32.55;101023.34;5094214;28;20051;-11
2021/09/09 05:59:25;;;;;;;3.47;3.17;;;24.40;48.70;;;28.36;32.57;101025.50;5094075;28;20130;-10
2021/09/09 06:01:51;;;;;;;3.00;2.72;;;24.50;48.60;;;28.42;32.86;101027.63;5094308;28;20135;-11
2021/09/09 06:04:21;;;;;;;3.22;2.92;;;24.50;48.50;;;28.44;32.70;101021.09;5094059;28;20078;-11
2021/09/09 06:06:48;;;;;;;3.37;3.07;;;24.50;48.40;;;28.51;32.42;101028.63;5094532;28;20527;-10
2021/09/09 06:09:14;;;;;;;3.13;2.78;;;24.70;48.30;;;28.55;32.60;101033.59;5094051;28;20056;-10
2021/09/09 06:11:40;;;;;;;3.35;3.05;;;24.70;48.30;;;28.57;32.50;101028.94;5093986;28;20420;-10
2021/09/09 06:14:06;;;;;;;3.25;2.95;;;24.70;48.10;;;28.63;32.36;101025.69;5093973;28;20052;-10
2021/09/09 06:16:32;;;;;;;3.67;3.28;;;24.80;48.00;;;28.65;32.20;101017.44;5094006;28;20370;-11
2021/09/09 06:18:59;;;;;;;2.90;2.58;;;24.80;47.80;;;28.70;32.30;101017.91;5093849;28;20059;-11
2021/09/09 06:21:24;;;;;;;3.20;2.90;;;24.90;47.70;;;28.75;32.37;101026.41;5093755;28;20134;-10
2021/09/09 06:23:50;;;;;;;3.45;3.03;;;25.00;47.60;;;28.80;31.83;101023.25;5093792;28;20044;-10
2021/09/09 06:26:18;;;;;;;4.40;3.45;;;25.00;47.50;;;28.82;32.22;101023.97;5094056;28;20048;-11
2021/09/09 06:28:44;;;;;;;3.28;2.88;;;25.10;47.40;;;28.89;31.86;101018.88;5093554;28;20402;-11
2021/09/09 06:31:10;;;;;;;4.22;2.83;;;25.10;47.30;;;28.92;31.98;101019.44;5093733;28;20547;-11
2021/09/09 06:33:36;;;;;;;2.83;2.63;;;25.20;47.20;;;28.96;31.80;101022.69;5093659;28;20127;-11
2021/09/09 06:36:02;;;;;;;3.03;2.72;;;25.20;47.00;;;28.99;32.05;101020.53;5093546;28;20056;-11
2021/09/09 06:38:27;;;;;;;3.15;2.88;;;25.30;46.90;;;29.04;31.96;101019.28;5093548;28;20417;-11
2021/09/09 06:40:55;;;;;;;3.05;2.30;;;25.40;46.90;;;29.08;31.74;101026.91;5075385;28;20055;-11
2021/09/09 06:43:22;;;;;;;3.60;2.95;;;25.40;46.80;;;29.12;31.47;101024.75;5075385;28;20059;-11
2021/09/09 06:45:47;;;;;;;2.97;2.70;;;25.40;46.70;;;29.16;31.84;101026.19;5093688;28;20051;-10
2021/09/09 06:48:14;;;;;;;2.90;2.60;;;25.40;46.70;;;29.16;31.71;101024.34;5093268;28;20052;-10
2021/09/09 06:50:40;;;;;;;2.65;2.45;;;25.50;46.70;;;29.23;31.31;101026.47;5093354;28;20501;-10
2021/09/09 06:53:06;;;;;;;3.78;3.10;;;25.50;46.70;;;29.26;31.33;101029.72;5093191;28;20143;-10
2021/09/09 06:55:32;;;;;;;2.85;2.65;;;25.50;46.60;;;29.29;31.31;101026.75;5093186;28;20123;-11
2021/09/09 06:57:58;;;;;;;3.17;2.88;;;25.60;46.60;;;29.33;31.27;101032.69;5093052;28;20181;-10
2021/09/09 07:00:24;;;;;;;3.63;3.30;;;25.60;46.50;;;29.36;31.22;101035.94;5093123;28;20048;-12
2021/09/09 07:02:50;;;;;;;4.63;2.90;;;25.60;46.40;;;29.41;31.28;101035.50;5092497;28;20085;-11
2021/09/09 07:05:16;;;;;;;3.45;3.15;;;25.70;46.40;;;29.43;31.38;101027.28;5090296;28;20056;-11
2021/09/09 07:07:42;;;;;;;4.22;3.20;;;25.70;46.30;;;29.50;31.32;101028.38;5092927;28;20131;-12
2021/09/09 07:10:10;;;;;;;3.45;3.10;;;25.70;46.30;;;29.50;31.33;101014.91;5074100;28;20040;-12
2021/09/09 07:12:36;;;;;;;3.17;2.88;;;25.80;46.30;;;29.53;31.14;101007.38;5093122;28;20044;-10
2021/09/09 07:15:04;;;;;;;3.80;3.35;;;25.80;46.30;;;29.58;31.06;101006.09;5093369;28;20387;-9
2021/09/09 07:17:30;;;;;;;4.85;3.22;;;25.80;46.20;;;29.58;31.11;101015.00;5092848;28;20048;-10
2021/09/09 07:19:55;;;;;;;3.65;3.35;;;25.90;46.40;;;29.63;31.19;101015.41;5092932;28;20417;-11
2021/09/09 07:22:21;;;;;;;3.40;3.08;;;25.80;46.40;;;29.66;31.14;101016.97;5093160;28;20052;-10
2021/09/09 07:24:47;;;;;;;3.40;3.10;;;25.80;46.50;;;29.69;31.16;101022.06;5092868;28;20098;-10
2021/09/09 07:27:13;;;;;;;4.05;3.50;;;25.80;46.60;;;29.71;31.23;101023.59;5092829;28;20040;-11
2021/09/09 07:29:38;;;;;;;4.80;3.17;;;25.80;46.80;;;29.72;31.12;101017.22;5092592;28;20051;-10
2021/09/09 07:32:05;;;;;;;4.13;3.30;;;25.80;47.00;;;29.75;31.23;101021.44;5092732;28;20396;-11
2021/09/09 07:34:31;;;;;;;4.40;3.33;;;25.80;47.20;;;29.73;31.38;101015.38;5092989;28;20048;-11
2021/09/09 07:36:57;;;;;;;5.03;3.45;;;25.70;47.90;;;29.74;31.27;101023.31;5092718;28;20143;-10
2021/09/09 07:39:23;;;;;;;3.85;3.22;;;25.70;47.70;;;29.74;31.51;101017.09;5092526;28;20058;-11
2021/09/09 07:41:48;;;;;;;5.63;3.70;;;25.60;47.80;;;29.70;31.48;101008.44;5092878;28;20044;-11
2021/09/09 07:44:14;;;;;;;5.28;3.85;;;25.60;48.00;;;29.72;31.54;101010.97;5092828;28;20044;-11
2021/09/09 07:46:40;;;;;;;4.63;3.97;;;25.60;48.30;;;29.68;31.87;101012.28;5092548;28;20446;-11
2021/09/09 07:49:08;;;;;;;4.20;3.80;;;25.50;48.40;;;29.68;31.82;101009.59;5072654;28;20127;-10
2021/09/09 07:51:35;;;;;;;5.55;3.75;;;25.50;49.10;;;29.68;31.72;101009.59;5092517;28;20082;-11
2021/09/09 07:54:00;;;;;;;5.50;3.97;;;25.50;48.70;;;29.64;31.79;101016.28;5093054;28;20374;-11
2021/09/09 07:56:26;;;;;;;7.13;4.63;;;25.50;48.80;;;29.66;32.13;101011.59;5092407;28;20058;-10
2021/09/09 07:58:52;;;;;;;4.68;3.85;;;25.50;49.00;;;29.66;31.92;101014.28;5092270;28;20408;-10
2021/09/09 08:01:19;;;;;;;6.97;3.88;;;25.50;49.00;;;29.64;32.25;101013.59;5092424;28;20512;-11
2021/09/09 08:03:46;;;;;;;6.80;3.90;;;25.40;49.20;;;29.64;32.13;101010.91;5092397;28;20055;-11
2021/09/09 08:06:13;;;;;;;8.73;4.28;;;25.40;49.30;;;29.59;32.11;101010.47;5092197;28;20501;-10
2021/09/09 08:08:38;;;;;;;6.25;4.20;;;25.40;49.40;;;29.58;32.18;101006.94;5092209;28;20048;-10
2021/09/09 08:11:04;;;;;;;6.05;3.92;;;25.40;49.50;;;29.55;32.16;101009.91;5092301;28;20131;-10
2021/09/09 08:13:30;;;;;;;6.10;4.47;;;25.30;49.50;;;29.56;32.34;101008.94;5093491;28;20047;-10
2021/09/09 08:15:57;;;;;;;6.03;4.28;;;25.30;49.60;;;29.56;32.57;101014.31;5095824;28;20064;-10
2021/09/09 08:18:24;;;;;;;5.47;4.13;;;25.30;49.70;;;29.51;32.54;101011.22;5095854;28;20409;-11
2021/09/09 08:20:54;;;;;;;5.55;4.43;;;25.20;49.80;;;29.47;32.41;101021.44;5095780;28;20044;-10
2021/09/09 08:23:21;;;;;;;4.85;3.67;;;25.20;49.90;;;29.47;32.37;101025.97;5096205;28;20040;-11
2021/09/09 08:25:47;;;;;;;9.88;4.10;;;25.20;50.00;;;29.44;32.45;101021.75;5095704;28;20048;-12
2021/09/09 08:28:13;;;;;;;6.05;4.45;;;25.10;50.00;;;29.44;32.60;101026.28;5095522;28;20496;-12
2021/09/09 08:30:39;;;;;;;5.82;4.47;;;25.20;50.60;;;29.42;32.63;101021.03;5095865;28;20071;-11
2021/09/09 08:33:05;;;;;;;8.88;4.43;;;25.30;50.00;;;29.44;32.71;101018.22;5095305;28;20067;-12
2021/09/09 08:35:31;;;;;;;6.75;4.85;;;25.50;49.50;;;29.47;32.63;101023.28;5095655;28;20052;-11
2021/09/09 08:37:57;;;;;;;10.23;4.57;;;25.60;49.50;;;29.47;33.27;101016.06;5095354;28;20052;-12
2021/09/09 08:40:23;;;;;;;9.48;5.00;;;25.50;50.80;;;29.48;34.25;101025.81;5095324;28;20150;-12
2021/09/09 08:42:48;;;;;;;8.48;5.03;;;25.50;54.10;;;29.50;35.55;101022.97;5095562;28;20055;-12
2021/09/09 08:45:16;;;;;;;7.45;5.10;;;25.40;56.70;;;29.45;36.21;101018.03;5095389;28;20044;-12
2021/09/09 08:47:42;;;;;;;8.35;5.80;;;25.30;58.20;;;29.45;36.43;101019.88;5095622;28;20044;-12
2021/09/09 08:50:10;;;;;;;6.22;5.30;;;25.20;57.90;;;29.40;36.12;101012.25;5095191;28;20066;-11
2021/09/09 08:52:39;;;;;;;6.85;5.07;;;25.10;55.70;;;29.37;36.21;101016.09;5077113;28;20169;-12
2021/09/09 08:55:07;;;;;;;6.95;5.13;;;25.10;57.00;;;29.34;36.80;101011.00;5095285;28;20059;-12
2021/09/09 08:57:33;;;;;;;9.13;5.18;;;25.00;58.20;;;29.33;36.59;101009.28;5095092;28;20154;-12
2021/09/09 09:00:05;;;;;;;5.85;5.10;;;25.00;57.50;;;29.27;36.48;101009.03;5095001;28;20052;-12
2021/09/09 09:02:31;;;;;;;8.80;5.22;;;24.90;56.70;;;29.25;36.28;100995.69;5095080;28;20096;-12
2021/09/09 09:05:07;;;;;;;8.45;5.15;;;24.90;56.50;;;29.19;36.04;100997.16;5095131;28;20060;-12
2021/09/09 09:07:34;;;;;;;6.55;4.63;;;24.90;55.90;;;29.19;36.16;100991.75;5095035;28;20040;-12
2021/09/09 09:10:06;;;;;;;10.68;5.28;;;24.80;55.50;;;29.18;36.08;100997.28;5095196;28;20486;-12
2021/09/09 09:12:44;;;;;;;7.80;5.38;;;24.80;55.80;;;29.13;35.80;100992.31;5095490;28;20120;-11
2021/09/09 09:15:32;;;;;;;8.68;4.70;;;24.80;55.70;;;29.12;36.13;100989.75;5095319;28;20431;-11
2021/09/09 09:18:07;;;;;;;6.95;5.30;;;24.80;55.70;;;29.12;35.85;100987.06;5094748;28;20525;-11
2021/09/09 09:20:52;;;;;;;8.52;5.72;;;24.70;55.60;;;29.07;35.96;100990.22;5094944;28;20055;-12
2021/09/09 09:23:26;;;;;;;8.75;5.20;;;24.80;55.20;;;29.05;36.01;100980.56;5094802;28;20086;-12
2021/09/09 09:25:59;;;;;;;5.45;4.60;;;24.80;55.30;;;29.01;35.99;100975.47;5093831;28;20045;-11
2021/09/09 09:28:47;;;;;;;6.53;5.15;;;24.70;54.90;;;29.01;35.75;100980.88;5094690;28;20048;-12
2021/09/09 09:31:29;;;;;;;7.72;5.00;;;24.70;54.80;;;28.99;35.57;100982.03;5094749;28;20071;-12
2021/09/09 09:33:58;;;;;;;8.05;4.90;;;24.70;54.80;;;28.99;35.59;100982.84;5094620;28;20044;-12
2021/09/09 09:36:31;;;;;;;5.72;4.75;;;24.70;54.60;;;28.94;35.55;100976.22;5094819;28;20540;-11
2021/09/09 09:39:14;;;;;;;7.88;5.22;;;24.70;54.50;;;28.93;35.72;100971.81;5094743;28;20051;-12
2021/09/09 09:41:56;;;;;;;5.80;4.60;;;24.70;54.50;;;28.93;35.78;100975.34;5094683;28;20070;-12
2021/09/09 09:44:34;;;;;;;6.18;5.10;;;24.70;54.40;;;28.95;35.70;100975.22;5094672;28;20543;-12
2021/09/09 09:47:12;;;;;;;8.15;4.90;;;24.70;54.40;;;28.90;35.37;100964.91;5094254;28;20060;-12
2021/09/09 09:49:42;;;;;;;7.10;4.88;;;24.70;54.20;;;28.89;35.37;100963.19;5093043;28;20048;-12
2021/09/09 09:52:17;;;;;;;11.30;4.93;;;24.60;54.10;;;28.89;35.45;100960.50;5094481;28;20052;-12
2021/09/09 09:55:00;;;;;;;5.95;4.70;;;24.60;54.10;;;28.89;35.26;100968.56;5094585;28;20044;-12
2021/09/09 09:57:29;;;;;;;6.75;4.68;;;24.60;54.00;;;28.88;35.28;100961.47;5094165;28;20440;-11
2021/09/09 09:59:56;;;;;;;9.18;5.38;;;24.60;53.90;;;28.87;35.57;100967.88;5094162;28;20051;-12
2021/09/09 10:02:24;;;;;;;6.57;4.82;;;24.60;53.90;;;28.87;35.34;100958.94;5094092;28;20052;-11
2021/09/09 10:04:50;;;;;;;8.93;4.82;;;24.60;53.80;;;28.88;35.42;100957.94;5094390;28;20126;-12
2021/09/09 10:07:17;;;;;;;6.05;4.82;;;24.60;53.70;;;28.86;35.33;100958.09;5094062;28;20047;-12
2021/09/09 10:09:43;;;;;;;6.85;4.82;;;24.60;53.60;;;28.87;35.26;100957.13;5094529;28;20089;-11
2021/09/09 10:12:12;;;;;;;7.65;4.63;;;24.60;53.50;;;28.84;35.20;100946.63;5093973;28;20048;-11